sensor_id;sensor_type;location;lat;lon;timestamp;pressure;altitude;pressure_sealevel;temperature;humidity
6208;BME280;3137;51.550;7.060;2023-06-22T00:02:24;75974.56;;;-145.94;47.75
6208;BME280;3137;51.550;7.060;2023-06-22T00:04:51;75974.56;;;-145.94;47.82
6208;BME280;3137;51.550;7.060;2023-06-22T00:07:17;75982.72;;;-145.94;47.90
6208;BME280;3137;51.550;7.060;2023-06-22T00:09:44;75984.75;;;-145.94;48.02
6208;BME280;3137;51.550;7.060;2023-06-22T00:12:10;75994.94;;;-145.94;48.22
6208;BME280;3137;51.550;7.060;2023-06-22T00:14:36;75999.03;;;-145.94;48.37
6208;BME280;3137;51.550;7.060;2023-06-22T00:17:03;76003.09;;;-145.94;48.57
6208;BME280;3137;51.550;7.060;2023-06-22T00:19:29;75994.94;;;-145.94;48.48
6208;BME280;3137;51.550;7.060;2023-06-22T00:21:56;75994.94;;;-145.94;48.47
6208;BME280;3137;51.550;7.060;2023-06-22T00:24:26;75997.00;;;-145.94;48.73
6208;BME280;3137;51.550;7.060;2023-06-22T00:26:52;76007.19;;;-145.94;48.94
6208;BME280;3137;51.550;7.060;2023-06-22T00:29:19;76013.28;;;-145.94;49.27
6208;BME280;3137;51.550;7.060;2023-06-22T00:31:45;76015.34;;;-145.94;49.13
6208;BME280;3137;51.550;7.060;2023-06-22T00:34:12;76017.38;;;-145.94;49.33
6208;BME280;3137;51.550;7.060;2023-06-22T00:36:38;76021.44;;;-145.94;49.26
6208;BME280;3137;51.550;7.060;2023-06-22T00:39:07;76027.56;;;-145.94;49.70
6208;BME280;3137;51.550;7.060;2023-06-22T00:41:35;76025.53;;;-145.94;49.73
6208;BME280;3137;51.550;7.060;2023-06-22T00:44:03;76023.50;;;-145.94;49.81
6208;BME280;3137;51.550;7.060;2023-06-22T00:46:30;76031.66;;;-145.94;49.64
6208;BME280;3137;51.550;7.060;2023-06-22T00:48:59;76031.66;;;-145.94;49.62
6208;BME280;3137;51.550;7.060;2023-06-22T00:51:27;76027.56;;;-145.94;49.94
6208;BME280;3137;51.550;7.060;2023-06-22T00:53:54;76019.41;;;-145.94;49.69
6208;BME280;3137;51.550;7.060;2023-06-22T00:56:21;76025.53;;;-145.94;49.79
6208;BME280;3137;51.550;7.060;2023-06-22T00:58:51;76027.56;;;-145.94;49.87
6208;BME280;3137;51.550;7.060;2023-06-22T01:01:19;76023.50;;;-145.94;50.00
6208;BME280;3137;51.550;7.060;2023-06-22T01:03:50;76023.50;;;-145.94;50.00
6208;BME280;3137;51.550;7.060;2023-06-22T01:06:34;76031.66;;;-145.94;50.15
6208;BME280;3137;51.550;7.060;2023-06-22T01:09:29;76029.59;;;-145.94;50.08
6208;BME280;3137;51.550;7.060;2023-06-22T01:12:00;76023.50;;;-145.94;50.39
6208;BME280;3137;51.550;7.060;2023-06-22T01:17:23;76031.66;;;-145.94;50.15
6208;BME280;3137;51.550;7.060;2023-06-22T01:19:54;76035.72;;;-145.94;50.46
6208;BME280;3137;51.550;7.060;2023-06-22T01:22:30;76047.97;;;-145.94;50.54
6208;BME280;3137;51.550;7.060;2023-06-22T01:25:10;76043.88;;;-145.94;50.81
6208;BME280;3137;51.550;7.060;2023-06-22T01:30:13;76050.00;;;-145.94;51.09
6208;BME280;3137;51.550;7.060;2023-06-22T01:32:42;76052.03;;;-145.94;51.22
6208;BME280;3137;51.550;7.060;2023-06-22T01:35:10;76054.06;;;-145.94;51.12
6208;BME280;3137;51.550;7.060;2023-06-22T01:37:38;76052.03;;;-145.94;51.45
6208;BME280;3137;51.550;7.060;2023-06-22T01:40:06;76056.13;;;-145.94;51.28
6208;BME280;3137;51.550;7.060;2023-06-22T01:42:35;76052.03;;;-145.94;51.19
6208;BME280;3137;51.550;7.060;2023-06-22T01:45:03;76050.00;;;-145.94;51.55
6208;BME280;3137;51.550;7.060;2023-06-22T01:47:29;76054.06;;;-145.94;51.44
6208;BME280;3137;51.550;7.060;2023-06-22T01:49:56;76056.13;;;-145.94;51.64
6208;BME280;3137;51.550;7.060;2023-06-22T01:52:22;76062.22;;;-145.94;51.53
6208;BME280;3137;51.550;7.060;2023-06-22T01:54:49;76070.38;;;-145.94;51.77
6208;BME280;3137;51.550;7.060;2023-06-22T01:57:16;76080.56;;;-145.94;51.48
6208;BME280;3137;51.550;7.060;2023-06-22T02:00:01;76082.63;;;-145.94;51.55
6208;BME280;3137;51.550;7.060;2023-06-22T02:02:54;76092.81;;;-145.94;51.97
6208;BME280;3137;51.550;7.060;2023-06-22T02:05:25;76098.94;;;-145.94;52.26
6208;BME280;3137;51.550;7.060;2023-06-22T02:08:09;76111.16;;;-145.94;52.35
6208;BME280;3137;51.550;7.060;2023-06-22T02:10:38;76117.28;;;-145.94;52.61
6208;BME280;3137;51.550;7.060;2023-06-22T02:13:09;76125.44;;;-145.94;52.64
6208;BME280;3137;51.550;7.060;2023-06-22T02:15:36;76123.41;;;-145.94;52.64
6208;BME280;3137;51.550;7.060;2023-06-22T02:18:03;76119.31;;;-145.94;52.90
6208;BME280;3137;51.550;7.060;2023-06-22T02:20:30;76119.31;;;-145.94;52.59
6208;BME280;3137;51.550;7.060;2023-06-22T02:22:57;76121.34;;;-145.94;52.92
6208;BME280;3137;51.550;7.060;2023-06-22T02:25:23;76123.41;;;-145.94;53.04
6208;BME280;3137;51.550;7.060;2023-06-22T02:27:50;76127.47;;;-145.94;52.81
6208;BME280;3137;51.550;7.060;2023-06-22T02:30:16;76133.59;;;-145.94;53.07
6208;BME280;3137;51.550;7.060;2023-06-22T02:32:43;76129.50;;;-145.94;53.32
6208;BME280;3137;51.550;7.060;2023-06-22T02:35:09;76139.69;;;-145.94;53.47
6208;BME280;3137;51.550;7.060;2023-06-22T02:37:37;76143.78;;;-145.94;53.71
6208;BME280;3137;51.550;7.060;2023-06-22T02:40:08;76143.78;;;-145.94;53.61
6208;BME280;3137;51.550;7.060;2023-06-22T02:42:37;76151.94;;;-145.94;53.90
6208;BME280;3137;51.550;7.060;2023-06-22T02:45:04;76151.94;;;-145.94;54.26
6208;BME280;3137;51.550;7.060;2023-06-22T02:47:30;76145.81;;;-145.94;54.04
6208;BME280;3137;51.550;7.060;2023-06-22T02:49:57;76151.94;;;-145.94;54.01
6208;BME280;3137;51.550;7.060;2023-06-22T02:52:24;76139.69;;;-145.94;54.00
6208;BME280;3137;51.550;7.060;2023-06-22T02:54:50;76145.81;;;-145.94;54.36
6208;BME280;3137;51.550;7.060;2023-06-22T02:57:17;76137.66;;;-145.94;54.23
6208;BME280;3137;51.550;7.060;2023-06-22T02:59:43;76139.69;;;-145.94;54.34
6208;BME280;3137;51.550;7.060;2023-06-22T03:02:11;76145.81;;;-145.94;54.60
6208;BME280;3137;51.550;7.060;2023-06-22T03:04:38;76145.81;;;-145.94;54.57
6208;BME280;3137;51.550;7.060;2023-06-22T03:07:05;76147.84;;;-145.94;54.52
6208;BME280;3137;51.550;7.060;2023-06-22T03:09:32;76145.81;;;-145.94;54.92
6208;BME280;3137;51.550;7.060;2023-06-22T03:11:59;76145.81;;;-145.94;55.08
6208;BME280;3137;51.550;7.060;2023-06-22T03:14:33;76151.94;;;-145.94;55.26
6208;BME280;3137;51.550;7.060;2023-06-22T03:17:00;76151.94;;;-145.94;55.31
6208;BME280;3137;51.550;7.060;2023-06-22T03:19:29;76151.94;;;-145.94;55.39
6208;BME280;3137;51.550;7.060;2023-06-22T03:21:59;76143.78;;;-145.94;55.25
6208;BME280;3137;51.550;7.060;2023-06-22T03:24:26;76141.75;;;-145.94;55.36
6208;BME280;3137;51.550;7.060;2023-06-22T03:26:55;76156.00;;;-145.94;55.41
6208;BME280;3137;51.550;7.060;2023-06-22T03:29:23;76158.06;;;-145.94;55.52
6208;BME280;3137;51.550;7.060;2023-06-22T03:31:50;76162.13;;;-145.94;55.62
6208;BME280;3137;51.550;7.060;2023-06-22T03:34:17;76174.38;;;-145.94;55.79
6208;BME280;3137;51.550;7.060;2023-06-22T03:36:43;76168.25;;;-145.94;55.96
6208;BME280;3137;51.550;7.060;2023-06-22T03:39:11;76174.38;;;-145.94;56.26
6208;BME280;3137;51.550;7.060;2023-06-22T03:41:39;76176.41;;;-145.94;56.20
6208;BME280;3137;51.550;7.060;2023-06-22T03:44:05;76170.28;;;-145.94;56.30
6208;BME280;3137;51.550;7.060;2023-06-22T03:46:32;76170.28;;;-145.94;56.35
6208;BME280;3137;51.550;7.060;2023-06-22T03:48:59;76170.28;;;-145.94;56.40
6208;BME280;3137;51.550;7.060;2023-06-22T03:51:25;76162.13;;;-145.94;56.40
6208;BME280;3137;51.550;7.060;2023-06-22T03:53:51;76153.97;;;-145.94;56.55
6208;BME280;3137;51.550;7.060;2023-06-22T03:56:18;76156.00;;;-145.94;56.55
6208;BME280;3137;51.550;7.060;2023-06-22T03:58:46;76145.81;;;-145.94;56.40
6208;BME280;3137;51.550;7.060;2023-06-22T04:01:13;76145.81;;;-145.94;56.59
6208;BME280;3137;51.550;7.060;2023-06-22T04:03:40;76145.81;;;-145.94;56.80
6208;BME280;3137;51.550;7.060;2023-06-22T04:06:07;76147.84;;;-145.94;56.78
6208;BME280;3137;51.550;7.060;2023-06-22T04:08:34;76143.78;;;-145.94;56.76
6208;BME280;3137;51.550;7.060;2023-06-22T04:11:00;76151.94;;;-145.94;56.83
6208;BME280;3137;51.550;7.060;2023-06-22T04:13:27;76141.75;;;-145.94;56.77
6208;BME280;3137;51.550;7.060;2023-06-22T04:15:53;76143.78;;;-145.94;56.77
6208;BME280;3137;51.550;7.060;2023-06-22T04:18:20;76145.81;;;-145.94;57.01
6208;BME280;3137;51.550;7.060;2023-06-22T04:20:46;76147.84;;;-145.94;57.04
6208;BME280;3137;51.550;7.060;2023-06-22T04:23:13;76141.75;;;-145.94;56.87
6208;BME280;3137;51.550;7.060;2023-06-22T04:25:39;76143.78;;;-145.94;57.00
6208;BME280;3137;51.550;7.060;2023-06-22T04:28:06;76143.78;;;-145.94;57.19
6208;BME280;3137;51.550;7.060;2023-06-22T04:30:39;76145.81;;;-145.94;57.20
6208;BME280;3137;51.550;7.060;2023-06-22T04:33:14;76143.78;;;-145.94;57.27
6208;BME280;3137;51.550;7.060;2023-06-22T04:35:40;76139.69;;;-145.94;57.35
6208;BME280;3137;51.550;7.060;2023-06-22T04:38:12;76133.59;;;-145.94;57.28
6208;BME280;3137;51.550;7.060;2023-06-22T04:40:39;76133.59;;;-145.94;57.00
6208;BME280;3137;51.550;7.060;2023-06-22T04:43:06;76127.47;;;-145.94;57.10
6208;BME280;3137;51.550;7.060;2023-06-22T04:45:33;76119.31;;;-145.94;57.10
6208;BME280;3137;51.550;7.060;2023-06-22T04:47:59;76119.31;;;-145.94;56.91
6208;BME280;3137;51.550;7.060;2023-06-22T04:50:26;76113.19;;;-145.94;57.17
6208;BME280;3137;51.550;7.060;2023-06-22T04:52:53;76109.13;;;-145.94;56.88
6208;BME280;3137;51.550;7.060;2023-06-22T04:55:19;76100.97;;;-145.94;56.86
6208;BME280;3137;51.550;7.060;2023-06-22T04:57:47;76105.03;;;-145.94;56.77
6208;BME280;3137;51.550;7.060;2023-06-22T05:00:19;76107.09;;;-145.94;56.95
6208;BME280;3137;51.550;7.060;2023-06-22T05:02:46;76100.97;;;-145.94;56.76
6208;BME280;3137;51.550;7.060;2023-06-22T05:05:13;76105.03;;;-145.94;57.00
6208;BME280;3137;51.550;7.060;2023-06-22T05:07:42;76098.94;;;-145.94;56.90
6208;BME280;3137;51.550;7.060;2023-06-22T05:10:12;76100.97;;;-145.94;56.73
6208;BME280;3137;51.550;7.060;2023-06-22T05:12:39;76113.19;;;-145.94;56.75
6208;BME280;3137;51.550;7.060;2023-06-22T05:15:09;76111.16;;;-145.94;56.74
6208;BME280;3137;51.550;7.060;2023-06-22T05:17:36;76107.09;;;-145.94;56.63
6208;BME280;3137;51.550;7.060;2023-06-22T05:20:11;76111.16;;;-145.94;56.75
6208;BME280;3137;51.550;7.060;2023-06-22T05:22:39;76107.09;;;-145.94;56.85
6208;BME280;3137;51.550;7.060;2023-06-22T05:25:08;76107.09;;;-145.94;56.79
6208;BME280;3137;51.550;7.060;2023-06-22T05:27:35;76111.16;;;-145.94;57.13
6208;BME280;3137;51.550;7.060;2023-06-22T05:30:07;76100.97;;;-145.94;56.73
6208;BME280;3137;51.550;7.060;2023-06-22T05:32:34;76109.13;;;-145.94;56.89
6208;BME280;3137;51.550;7.060;2023-06-22T05:35:02;76117.28;;;-145.94;57.04
6208;BME280;3137;51.550;7.060;2023-06-22T05:37:29;76115.25;;;-145.94;57.10
6208;BME280;3137;51.550;7.060;2023-06-22T05:39:55;76127.47;;;-145.94;57.15
6208;BME280;3137;51.550;7.060;2023-06-22T05:42:23;76131.56;;;-145.94;57.35
6208;BME280;3137;51.550;7.060;2023-06-22T05:44:52;76127.47;;;-145.94;57.45
6208;BME280;3137;51.550;7.060;2023-06-22T05:47:19;76125.44;;;-145.94;57.34
6208;BME280;3137;51.550;7.060;2023-06-22T05:49:46;76131.56;;;-145.94;57.23
6208;BME280;3137;51.550;7.060;2023-06-22T05:52:12;76127.47;;;-145.94;57.52
6208;BME280;3137;51.550;7.060;2023-06-22T05:54:38;76125.44;;;-145.94;57.19
6208;BME280;3137;51.550;7.060;2023-06-22T05:57:05;76133.59;;;-145.94;57.24
6208;BME280;3137;51.550;7.060;2023-06-22T05:59:31;76133.59;;;-145.94;57.25
6208;BME280;3137;51.550;7.060;2023-06-22T06:01:58;76129.50;;;-145.94;57.35
6208;BME280;3137;51.550;7.060;2023-06-22T06:04:24;76125.44;;;-145.94;57.24
6208;BME280;3137;51.550;7.060;2023-06-22T06:06:52;76131.56;;;-145.94;57.53
6208;BME280;3137;51.550;7.060;2023-06-22T06:09:18;76133.59;;;-145.94;57.79
6208;BME280;3137;51.550;7.060;2023-06-22T06:11:45;76131.56;;;-145.94;57.60
6208;BME280;3137;51.550;7.060;2023-06-22T06:14:11;76133.59;;;-145.94;57.72
6208;BME280;3137;51.550;7.060;2023-06-22T06:16:37;76137.66;;;-145.94;58.05
6208;BME280;3137;51.550;7.060;2023-06-22T06:19:04;76127.47;;;-145.94;58.10
6208;BME280;3137;51.550;7.060;2023-06-22T06:21:30;76127.47;;;-145.94;58.32
6208;BME280;3137;51.550;7.060;2023-06-22T06:23:57;76135.63;;;-145.94;58.58
6208;BME280;3137;51.550;7.060;2023-06-22T06:26:23;76133.59;;;-145.94;58.45
6208;BME280;3137;51.550;7.060;2023-06-22T06:28:56;76139.69;;;-145.94;58.66
6208;BME280;3137;51.550;7.060;2023-06-22T06:31:23;76139.69;;;-145.94;59.01
6208;BME280;3137;51.550;7.060;2023-06-22T06:33:50;76141.75;;;-145.94;59.36
6208;BME280;3137;51.550;7.060;2023-06-22T06:36:16;76129.50;;;-145.94;59.41
6208;BME280;3137;51.550;7.060;2023-06-22T06:38:43;76137.66;;;-145.94;59.88
6208;BME280;3137;51.550;7.060;2023-06-22T06:41:09;76139.69;;;-145.94;59.90
6208;BME280;3137;51.550;7.060;2023-06-22T06:43:36;76135.63;;;-145.94;60.25
6208;BME280;3137;51.550;7.060;2023-06-22T06:46:02;76139.69;;;-145.94;60.17
6208;BME280;3137;51.550;7.060;2023-06-22T06:48:29;76143.78;;;-145.94;60.41
6208;BME280;3137;51.550;7.060;2023-06-22T06:50:56;76133.59;;;-145.94;60.52
6208;BME280;3137;51.550;7.060;2023-06-22T06:53:22;76129.50;;;-145.94;60.83
6208;BME280;3137;51.550;7.060;2023-06-22T06:55:49;76129.50;;;-145.94;60.89
6208;BME280;3137;51.550;7.060;2023-06-22T06:58:15;76121.34;;;-145.94;61.26
6208;BME280;3137;51.550;7.060;2023-06-22T07:00:42;76131.56;;;-145.94;61.10
6208;BME280;3137;51.550;7.060;2023-06-22T07:03:09;76123.41;;;-145.94;61.49
6208;BME280;3137;51.550;7.060;2023-06-22T07:05:36;76119.31;;;-145.94;61.74
6208;BME280;3137;51.550;7.060;2023-06-22T07:08:02;76115.25;;;-145.94;61.80
6208;BME280;3137;51.550;7.060;2023-06-22T07:10:29;76119.31;;;-145.94;61.89
6208;BME280;3137;51.550;7.060;2023-06-22T07:12:56;76117.28;;;-145.94;62.00
6208;BME280;3137;51.550;7.060;2023-06-22T07:15:23;76111.16;;;-145.94;61.67
6208;BME280;3137;51.550;7.060;2023-06-22T07:17:50;76109.13;;;-145.94;61.81
6208;BME280;3137;51.550;7.060;2023-06-22T07:20:16;76100.97;;;-145.94;61.66
6208;BME280;3137;51.550;7.060;2023-06-22T07:22:44;76094.84;;;-145.94;62.04
6208;BME280;3137;51.550;7.060;2023-06-22T07:25:13;76096.88;;;-145.94;61.95
6208;BME280;3137;51.550;7.060;2023-06-22T07:28:00;76094.84;;;-145.94;61.71
6208;BME280;3137;51.550;7.060;2023-06-22T07:30:28;76088.72;;;-145.94;61.71
6208;BME280;3137;51.550;7.060;2023-06-22T07:32:56;76090.78;;;-145.94;61.69
6208;BME280;3137;51.550;7.060;2023-06-22T07:35:23;76088.72;;;-145.94;61.79
6208;BME280;3137;51.550;7.060;2023-06-22T07:37:50;76080.56;;;-145.94;61.54
6208;BME280;3137;51.550;7.060;2023-06-22T07:40:16;76076.50;;;-145.94;61.51
6208;BME280;3137;51.550;7.060;2023-06-22T07:42:43;76074.47;;;-145.94;61.71
6208;BME280;3137;51.550;7.060;2023-06-22T07:45:10;76064.25;;;-145.94;61.44
6208;BME280;3137;51.550;7.060;2023-06-22T07:47:36;76062.22;;;-145.94;61.81
6208;BME280;3137;51.550;7.060;2023-06-22T07:50:03;76056.13;;;-145.94;61.58
6208;BME280;3137;51.550;7.060;2023-06-22T07:52:31;76050.00;;;-145.94;61.65
6208;BME280;3137;51.550;7.060;2023-06-22T07:54:57;76047.97;;;-145.94;61.09
6208;BME280;3137;51.550;7.060;2023-06-22T07:57:24;76043.88;;;-145.94;61.32
6208;BME280;3137;51.550;7.060;2023-06-22T07:59:59;76033.69;;;-145.94;61.05
6208;BME280;3137;51.550;7.060;2023-06-22T08:02:26;76029.59;;;-145.94;61.12
6208;BME280;3137;51.550;7.060;2023-06-22T08:04:53;76013.28;;;-145.94;60.96
6208;BME280;3137;51.550;7.060;2023-06-22T08:07:31;76009.22;;;-145.94;60.52
6208;BME280;3137;51.550;7.060;2023-06-22T08:09:59;76001.06;;;-145.94;60.56
6208;BME280;3137;51.550;7.060;2023-06-22T08:12:26;75999.03;;;-145.94;60.05
6208;BME280;3137;51.550;7.060;2023-06-22T08:14:52;75990.88;;;-145.94;60.14
6208;BME280;3137;51.550;7.060;2023-06-22T08:17:19;75978.63;;;-145.94;60.00
6208;BME280;3137;51.550;7.060;2023-06-22T08:19:45;75968.44;;;-145.94;59.44
6208;BME280;3137;51.550;7.060;2023-06-22T08:22:12;75960.28;;;-145.94;59.38
6208;BME280;3137;51.550;7.060;2023-06-22T08:24:38;75954.19;;;-145.94;59.28
6208;BME280;3137;51.550;7.060;2023-06-22T08:27:07;75937.88;;;-145.94;59.26
6208;BME280;3137;51.550;7.060;2023-06-22T08:29:35;75923.59;;;-145.94;59.26
6208;BME280;3137;51.550;7.060;2023-06-22T08:32:02;75907.28;;;-145.94;59.29
6208;BME280;3137;51.550;7.060;2023-06-22T08:34:28;75890.97;;;-145.94;58.96
6208;BME280;3137;51.550;7.060;2023-06-22T08:36:55;75868.56;;;-145.94;59.68
6208;BME280;3137;51.550;7.060;2023-06-22T08:39:21;75856.31;;;-145.94;59.52
6208;BME280;3137;51.550;7.060;2023-06-22T08:41:48;75835.94;;;-145.94;58.41
6208;BME280;3137;51.550;7.060;2023-06-22T08:44:17;75811.47;;;-145.94;58.88
6208;BME280;3137;51.550;7.060;2023-06-22T08:46:45;75797.19;;;-145.94;58.21
6208;BME280;3137;51.550;7.060;2023-06-22T08:49:11;75791.09;;;-145.94;57.99
6208;BME280;3137;51.550;7.060;2023-06-22T08:51:38;75784.97;;;-145.94;57.89
6208;BME280;3137;51.550;7.060;2023-06-22T08:54:04;75776.81;;;-145.94;57.99
6208;BME280;3137;51.550;7.060;2023-06-22T08:56:31;75776.81;;;-145.94;57.51
6208;BME280;3137;51.550;7.060;2023-06-22T08:58:57;75766.63;;;-145.94;57.57
6208;BME280;3137;51.550;7.060;2023-06-22T09:01:24;75758.47;;;-145.94;57.24
6208;BME280;3137;51.550;7.060;2023-06-22T09:03:50;75750.31;;;-145.94;56.93
6208;BME280;3137;51.550;7.060;2023-06-22T09:06:22;75752.34;;;-145.94;57.12
6208;BME280;3137;51.550;7.060;2023-06-22T09:08:48;75748.28;;;-145.94;57.02
6208;BME280;3137;51.550;7.060;2023-06-22T09:11:15;75742.16;;;-145.94;57.06
6208;BME280;3137;51.550;7.060;2023-06-22T09:13:42;75736.03;;;-145.94;57.02
6208;BME280;3137;51.550;7.060;2023-06-22T09:16:08;75731.97;;;-145.94;56.68
6208;BME280;3137;51.550;7.060;2023-06-22T09:18:35;75734.00;;;-145.94;56.38
6208;BME280;3137;51.550;7.060;2023-06-22T09:21:02;75736.03;;;-145.94;56.35
6208;BME280;3137;51.550;7.060;2023-06-22T09:23:29;75729.91;;;-145.94;56.57
6208;BME280;3137;51.550;7.060;2023-06-22T09:25:55;75734.00;;;-145.94;56.84
6208;BME280;3137;51.550;7.060;2023-06-22T09:28:22;75729.91;;;-145.94;56.97
6208;BME280;3137;51.550;7.060;2023-06-22T09:30:48;75725.84;;;-145.94;56.77
6208;BME280;3137;51.550;7.060;2023-06-22T09:33:14;75719.72;;;-145.94;56.95
6208;BME280;3137;51.550;7.060;2023-06-22T09:35:41;75717.69;;;-145.94;56.86
6208;BME280;3137;51.550;7.060;2023-06-22T09:38:07;75719.72;;;-145.94;57.01
6208;BME280;3137;51.550;7.060;2023-06-22T09:40:34;75709.53;;;-145.94;56.84
6208;BME280;3137;51.550;7.060;2023-06-22T09:43:06;75713.63;;;-145.94;56.76
6208;BME280;3137;51.550;7.060;2023-06-22T09:45:32;75703.41;;;-145.94;56.73
6208;BME280;3137;51.550;7.060;2023-06-22T09:47:59;75697.31;;;-145.94;56.68
6208;BME280;3137;51.550;7.060;2023-06-22T09:50:25;75687.13;;;-145.94;56.42
6208;BME280;3137;51.550;7.060;2023-06-22T09:52:52;75681.00;;;-145.94;56.13
6208;BME280;3137;51.550;7.060;2023-06-22T09:55:22;75685.06;;;-145.94;56.19
6208;BME280;3137;51.550;7.060;2023-06-22T09:57:48;75670.81;;;-145.94;56.38
6208;BME280;3137;51.550;7.060;2023-06-22T10:00:16;75664.69;;;-145.94;56.11
6208;BME280;3137;51.550;7.060;2023-06-22T10:02:43;75656.53;;;-145.94;56.13
6208;BME280;3137;51.550;7.060;2023-06-22T10:05:11;75658.56;;;-145.94;56.09
6208;BME280;3137;51.550;7.060;2023-06-22T10:07:38;75658.56;;;-145.94;55.86
6208;BME280;3137;51.550;7.060;2023-06-22T10:10:09;75648.38;;;-145.94;55.70
6208;BME280;3137;51.550;7.060;2023-06-22T10:12:36;75621.88;;;-145.94;55.13
6208;BME280;3137;51.550;7.060;2023-06-22T10:15:02;75607.59;;;-145.94;54.92
6208;BME280;3137;51.550;7.060;2023-06-22T10:17:30;75591.28;;;-145.94;55.03
6208;BME280;3137;51.550;7.060;2023-06-22T10:19:56;75575.00;;;-145.94;54.50
6208;BME280;3137;51.550;7.060;2023-06-22T10:22:22;75556.63;;;-145.94;54.36
6208;BME280;3137;51.550;7.060;2023-06-22T10:24:49;75538.28;;;-145.94;54.14
6208;BME280;3137;51.550;7.060;2023-06-22T10:27:16;75524.03;;;-145.94;53.37
6208;BME280;3137;51.550;7.060;2023-06-22T10:29:42;75511.78;;;-145.94;52.95
6208;BME280;3137;51.550;7.060;2023-06-22T10:32:09;75493.44;;;-145.94;52.33
6208;BME280;3137;51.550;7.060;2023-06-22T10:34:35;75477.13;;;-145.94;51.86
6208;BME280;3137;51.550;7.060;2023-06-22T10:37:02;75477.13;;;-145.94;51.74
6208;BME280;3137;51.550;7.060;2023-06-22T10:39:28;75450.63;;;-145.94;51.70
6208;BME280;3137;51.550;7.060;2023-06-22T10:41:54;75440.44;;;-145.94;50.65
6208;BME280;3137;51.550;7.060;2023-06-22T10:44:22;75426.19;;;-145.94;50.50
6208;BME280;3137;51.550;7.060;2023-06-22T10:46:48;75422.09;;;-145.94;50.64
6208;BME280;3137;51.550;7.060;2023-06-22T10:49:15;75418.03;;;-145.94;50.32
6208;BME280;3137;51.550;7.060;2023-06-22T10:51:41;75422.09;;;-145.94;50.31
6208;BME280;3137;51.550;7.060;2023-06-22T10:54:08;75418.03;;;-145.94;50.06
6208;BME280;3137;51.550;7.060;2023-06-22T10:56:34;75424.13;;;-145.94;50.19
6208;BME280;3137;51.550;7.060;2023-06-22T10:59:01;75434.34;;;-145.94;50.67
6208;BME280;3137;51.550;7.060;2023-06-22T11:01:28;75440.44;;;-145.94;50.71
6208;BME280;3137;51.550;7.060;2023-06-22T11:04:01;75440.44;;;-145.94;50.84
6208;BME280;3137;51.550;7.060;2023-06-22T11:06:28;75438.41;;;-145.94;51.00
6208;BME280;3137;51.550;7.060;2023-06-22T11:08:54;75450.63;;;-145.94;50.97
6208;BME280;3137;51.550;7.060;2023-06-22T11:11:32;75454.72;;;-145.94;51.14
6208;BME280;3137;51.550;7.060;2023-06-22T11:13:58;75460.84;;;-145.94;51.20
6208;BME280;3137;51.550;7.060;2023-06-22T11:16:25;75466.94;;;-145.94;51.09
6208;BME280;3137;51.550;7.060;2023-06-22T11:18:51;75471.03;;;-145.94;51.27
6208;BME280;3137;51.550;7.060;2023-06-22T11:21:18;75468.97;;;-145.94;51.15
6208;BME280;3137;51.550;7.060;2023-06-22T11:23:45;75473.06;;;-145.94;51.00
6208;BME280;3137;51.550;7.060;2023-06-22T11:26:11;75471.03;;;-145.94;51.13
6208;BME280;3137;51.550;7.060;2023-06-22T11:28:38;75471.03;;;-145.94;51.33
6208;BME280;3137;51.550;7.060;2023-06-22T11:31:04;75468.97;;;-145.94;51.86
6208;BME280;3137;51.550;7.060;2023-06-22T11:33:51;75471.03;;;-145.94;52.33
6208;BME280;3137;51.550;7.060;2023-06-22T11:36:18;75479.19;;;-145.94;52.92
6208;BME280;3137;51.550;7.060;2023-06-22T11:38:45;75481.22;;;-145.94;52.95
6208;BME280;3137;51.550;7.060;2023-06-22T11:41:12;75495.50;;;-145.94;53.60
6208;BME280;3137;51.550;7.060;2023-06-22T11:43:38;75505.69;;;-145.94;54.17
6208;BME280;3137;51.550;7.060;2023-06-22T11:46:05;75511.78;;;-145.94;54.55
6208;BME280;3137;51.550;7.060;2023-06-22T11:48:31;75524.03;;;-145.94;54.98
6208;BME280;3137;51.550;7.060;2023-06-22T11:50:58;75530.13;;;-145.94;55.43
6208;BME280;3137;51.550;7.060;2023-06-22T11:53:26;75548.50;;;-145.94;55.72
6208;BME280;3137;51.550;7.060;2023-06-22T11:55:53;75560.72;;;-145.94;56.32
6208;BME280;3137;51.550;7.060;2023-06-22T11:58:21;75570.91;;;-145.94;57.09
6208;BME280;3137;51.550;7.060;2023-06-22T12:00:48;75581.09;;;-145.94;57.61
6208;BME280;3137;51.550;7.060;2023-06-22T12:03:18;75593.34;;;-145.94;58.12
6208;BME280;3137;51.550;7.060;2023-06-22T12:05:45;75589.25;;;-145.94;58.65
6208;BME280;3137;51.550;7.060;2023-06-22T12:08:11;75601.50;;;-145.94;59.22
6208;BME280;3137;51.550;7.060;2023-06-22T12:10:39;75601.50;;;-145.94;59.81
6208;BME280;3137;51.550;7.060;2023-06-22T12:13:06;75601.50;;;-145.94;60.40
6208;BME280;3137;51.550;7.060;2023-06-22T12:15:32;75615.75;;;-145.94;60.98
6208;BME280;3137;51.550;7.060;2023-06-22T12:17:59;75619.84;;;-145.94;61.58
6208;BME280;3137;51.550;7.060;2023-06-22T12:20:25;75619.84;;;-145.94;61.94
6208;BME280;3137;51.550;7.060;2023-06-22T12:22:52;75619.84;;;-145.94;62.43
6208;BME280;3137;51.550;7.060;2023-06-22T12:25:18;75623.91;;;-145.94;63.97
6208;BME280;3137;51.550;7.060;2023-06-22T12:27:45;75632.06;;;-145.94;64.13
6208;BME280;3137;51.550;7.060;2023-06-22T12:30:11;75628.00;;;-145.94;64.56
6208;BME280;3137;51.550;7.060;2023-06-22T12:32:38;75636.16;;;-145.94;65.44
6208;BME280;3137;51.550;7.060;2023-06-22T12:35:05;75644.31;;;-145.94;65.61
6208;BME280;3137;51.550;7.060;2023-06-22T12:37:33;75644.31;;;-145.94;66.11
6208;BME280;3137;51.550;7.060;2023-06-22T12:40:00;75640.22;;;-145.94;66.63
6208;BME280;3137;51.550;7.060;2023-06-22T12:42:26;75634.09;;;-145.94;67.23
6208;BME280;3137;51.550;7.060;2023-06-22T12:44:54;75632.06;;;-145.94;67.16
6208;BME280;3137;51.550;7.060;2023-06-22T12:47:21;75613.72;;;-145.94;67.43
6208;BME280;3137;51.550;7.060;2023-06-22T12:49:48;75605.56;;;-145.94;67.29
6208;BME280;3137;51.550;7.060;2023-06-22T12:52:14;75619.84;;;-145.94;67.56
6208;BME280;3137;51.550;7.060;2023-06-22T12:54:41;75621.88;;;-145.94;67.60
6208;BME280;3137;51.550;7.060;2023-06-22T12:57:20;75617.81;;;-145.94;67.58
6208;BME280;3137;51.550;7.060;2023-06-22T12:59:46;75615.75;;;-145.94;67.44
6208;BME280;3137;51.550;7.060;2023-06-22T13:02:13;75617.81;;;-145.94;67.38
6208;BME280;3137;51.550;7.060;2023-06-22T13:04:39;75617.81;;;-145.94;66.98
6208;BME280;3137;51.550;7.060;2023-06-22T13:07:06;75605.56;;;-145.94;67.05
6208;BME280;3137;51.550;7.060;2023-06-22T13:09:46;75605.56;;;-145.94;67.01